Green City, Missouri
Current Conditions -  °F | °C
As of 9:55 PM on Saturday 20 Dec 2014 (Local Time) from KIRK Reporting Station
Haze Haze  
Wind Chill: 31°   Ceiling: 1700
Heat Index: 38°   Visibility: 5mi
Dew Point: 37°   Wind: 9mph
Humidity: 97%   Direction: 180°S
Pressure: 30.17"   Gusts: NA
Location:  40.27°N, 92.95°W
Report Text: KIRK 210355Z AUTO 18008KT 5SM BR OVC017 03/03 A3017 RMK AO2 SLP227 T00330028
Loading
Personal Weather Stations






























Interactive Weather Map New forecast layout! Learn more

10-Day Weather Forecast

Advertisements
Track Severe Weather on mobile